Time;durP1;ratioP1;P1;durP2;ratioP2;P2;SDS_P1;SDS_P2;PMS_P1;PMS_P2;Temp;Humidity;BMP_temperature;BMP_pressure;BME280_temperature;BME280_humidity;BME280_pressure;Samples;Min_cycle;Max_cycle;Signal;HPM_P1;HPM_P2
2022/08/19 00:01:27;;;;;;;17.95;15.13;;;;;;;16.28;98.07;101310.44;5032146;28;20075;-75
2022/08/19 00:03:52;;;;;;;19.20;14.20;;;;;;;16.30;98.27;101322.38;5032599;28;20024;-75
2022/08/19 00:06:18;;;;;;;15.30;13.75;;;;;;;16.36;97.62;101334.13;5032132;28;20034;-75
2022/08/19 00:08:44;;;;;;;17.48;14.27;;;;;;;16.32;98.30;101337.91;5032179;28;20432;-74
2022/08/19 00:11:10;;;;;;;17.65;15.32;;;;;;;16.19;98.60;101319.81;5032226;28;20021;-76
2022/08/19 00:13:36;;;;;;;19.30;15.75;;;;;;;16.27;98.78;101333.06;5031857;28;20124;-75
2022/08/19 00:16:02;;;;;;;17.05;15.25;;;;;;;16.16;98.71;101319.22;5032137;28;20105;-75
2022/08/19 00:18:27;;;;;;;15.00;13.35;;;;;;;16.00;98.88;101298.75;5032426;28;20384;-75
2022/08/19 00:20:53;;;;;;;17.58;14.15;;;;;;;16.18;98.68;101332.97;5035905;28;20029;-75
2022/08/19 00:23:18;;;;;;;15.18;13.38;;;;;;;16.05;98.32;101317.47;5035902;28;20041;-75
2022/08/19 00:25:44;;;;;;;16.98;14.18;;;;;;;16.13;98.78;101329.91;5035648;28;20025;-80
2022/08/19 00:28:10;;;;;;;17.15;15.35;;;;;;;16.03;98.90;101319.38;5035537;28;20025;-79
2022/08/19 00:30:35;;;;;;;17.10;15.13;;;;;;;16.10;98.70;101324.91;5035644;28;20022;-79
2022/08/19 00:33:00;;;;;;;16.13;14.25;;;;;;;16.14;98.97;101340.19;5017979;28;20040;-77
2022/08/19 00:35:27;;;;;;;17.60;15.70;;;;;;;16.10;99.52;101328.34;5035510;28;20029;-79
2022/08/19 00:37:53;;;;;;;19.48;16.00;;;;;;;16.01;99.72;101321.25;5035554;28;20026;-77
2022/08/19 00:40:21;;;;;;;22.42;17.85;;;;;;;16.09;100.00;101337.09;5035436;28;20046;-75
2022/08/19 00:42:47;;;;;;;21.05;16.35;;;;;;;16.10;100.00;101343.16;5035451;28;20100;-75
2022/08/19 00:45:20;;;;;;;18.20;15.13;;;;;;;16.06;100.00;101342.56;5035511;28;20029;-78
2022/08/19 00:47:45;;;;;;;17.08;15.18;;;;;;;15.99;100.00;101337.00;5035308;28;20036;-75
2022/08/19 00:50:14;;;;;;;17.33;15.20;;;;;;;15.89;100.00;101327.41;5035279;28;20055;-74
2022/08/19 00:52:47;;;;;;;16.88;14.32;;;;;;;15.89;100.00;101328.22;5034925;28;20025;-75
2022/08/19 00:55:19;;;;;;;17.58;15.13;;;;;;;15.94;100.00;101340.91;5035115;28;20029;-75
2022/08/19 00:57:47;;;;;;;;;;;;;;;16.00;98.24;101335.22;5033991;28;20576;-75
2022/08/19 01:00:18;;;;;;;19.42;16.08;;;;;;;15.86;100.00;101323.28;5035065;28;20007;-75
2022/08/19 01:02:44;;;;;;;19.05;15.07;;;;;;;15.57;99.90;101285.59;5035007;28;20549;-75
2022/08/19 01:05:14;;;;;;;18.58;15.73;;;;;;;15.63;100.00;101299.00;5034805;28;20068;-74
2022/08/19 01:07:41;;;;;;;20.95;16.77;;;;;;;15.75;100.00;101318.06;5035004;28;20047;-75
2022/08/19 01:10:11;;;;;;;18.80;15.30;;;;;;;15.80;100.00;101330.72;5034825;28;20087;-75
2022/08/19 01:12:37;;;;;;;21.40;16.95;;;;;;;15.74;100.00;101340.69;5034528;28;20042;-75
2022/08/19 01:15:06;;;;;;;18.10;15.48;;;;;;;15.67;100.00;101333.44;5034856;28;20050;-76
2022/08/19 01:17:33;;;;;;;22.85;17.10;;;;;;;15.71;100.00;101347.88;5034835;28;20025;-75
2022/08/19 01:19:58;;;;;;;20.02;16.13;;;;;;;15.71;100.00;101347.88;5034524;28;20072;-76
2022/08/19 01:22:23;;;;;;;19.60;16.30;;;;;;;15.69;100.00;101347.16;5034630;28;20025;-75
2022/08/19 01:24:51;;;;;;;23.20;18.02;;;;;;;15.67;100.00;101349.06;5034725;28;20025;-76
2022/08/19 01:27:17;;;;;;;20.73;17.00;;;;;;;15.67;100.00;101331.66;5034619;28;20037;-76
2022/08/19 01:29:44;;;;;;;19.48;16.35;;;;;;;15.58;100.00;101318.50;5034049;28;20025;-76
2022/08/19 01:32:14;;;;;;;22.00;17.77;;;;;;;15.58;100.00;101334.09;5033878;28;20452;-75
2022/08/19 01:34:39;;;;;;;21.30;17.50;;;;;;;15.61;100.00;101339.09;5034263;28;20018;-76
2022/08/19 01:37:08;;;;;;;26.65;19.88;;;;;;;15.60;100.00;101338.28;5034190;28;20488;-77
2022/08/19 01:39:33;;;;;;;23.98;19.23;;;;;;;15.50;100.00;101326.88;5034442;28;20017;-75
2022/08/19 01:42:02;;;;;;;24.45;18.90;;;;;;;15.56;100.00;101336.00;5034275;28;20044;-77
2022/08/19 01:44:28;;;;;;;25.65;19.65;;;;;;;15.54;100.00;101333.53;5034049;28;20025;-77
2022/08/19 01:46:53;;;;;;;23.98;19.15;;;;;;;15.56;100.00;101330.81;5034265;28;20029;-79
2022/08/19 01:49:21;;;;;;;28.63;21.85;;;;;;;15.56;100.00;101339.44;5033983;28;20025;-76
2022/08/19 01:51:46;;;;;;;26.27;21.10;;;;;;;15.55;100.00;101331.75;5034074;28;20025;-78
2022/08/19 01:54:15;;;;;;;24.80;20.70;;;;;;;15.53;100.00;101333.63;5033945;28;20044;-76
2022/08/19 01:56:40;;;;;;;25.83;19.35;;;;;;;15.46;100.00;101326.28;5034017;28;20033;-75
2022/08/19 01:59:14;;;;;;;22.75;18.40;;;;;;;15.40;100.00;101312.91;5033718;28;20022;-75
2022/08/19 02:01:40;;;;;;;25.25;18.60;;;;;;;15.42;100.00;101330.06;5033904;28;20096;-75
2022/08/19 02:04:06;;;;;;;23.83;17.77;;;;;;;15.36;100.00;101319.28;5015947;28;20500;-76
2022/08/19 02:06:32;;;;;;;21.75;17.70;;;;;;;15.45;100.00;101334.22;5033679;28;20069;-76
2022/08/19 02:08:58;;;;;;;24.83;18.27;;;;;;;15.38;100.00;101333.84;5015912;28;20370;-77
2022/08/19 02:11:27;;;;;;;23.20;16.95;;;;;;;15.37;100.00;101342.59;5016425;28;20031;-78
2022/08/19 02:13:53;;;;;;;21.38;16.92;;;;;;;15.09;100.00;101301.38;5032168;28;20041;-80
2022/08/19 02:16:19;;;;;;;20.38;15.50;;;;;;;15.15;100.00;101322.56;5033610;28;20056;-76
2022/08/19 02:18:48;;;;;;;24.27;18.20;;;;;;;15.16;100.00;101332.00;5033435;28;20021;-80
2022/08/19 02:21:15;;;;;;;23.95;17.60;;;;;;;15.21;100.00;101342.91;5015805;28;20440;-76
2022/08/19 02:23:41;;;;;;;23.40;18.23;;;;;;;15.23;100.00;101355.78;5033753;28;20025;-75
2022/08/19 02:26:06;;;;;;;22.45;17.33;;;;;;;15.17;100.00;101336.28;5033234;28;20388;-80
2022/08/19 02:28:32;;;;;;;24.98;20.00;;;;;;;15.12;100.00;101330.56;5015710;28;20036;-78
2022/08/19 02:30:58;;;;;;;28.85;21.73;;;;;;;15.16;100.00;101347.63;5033185;28;20016;-77
2022/08/19 02:33:23;;;;;;;27.83;21.48;;;;;;;15.12;100.00;101342.75;5033129;28;20029;-78
2022/08/19 02:35:49;;;;;;;30.08;21.00;;;;;;;15.15;100.00;101356.38;5033416;28;20385;-78
2022/08/19 02:38:26;;;;;;;27.13;21.40;;;;;;;15.12;100.00;101364.38;5033084;28;20021;-76
2022/08/19 02:41:01;;;;;;;27.38;20.38;;;;;;;15.00;100.00;101343.66;5033313;28;20026;-78
2022/08/19 02:43:29;;;;;;;30.70;21.70;;;;;;;15.01;100.00;101343.53;5032799;28;20017;-76
2022/08/19 02:45:54;;;;;;;33.47;23.23;;;;;;;15.02;100.00;101350.41;5032790;28;20052;-80
2022/08/19 02:48:22;;;;;;;32.13;23.55;;;;;;;15.06;100.00;101356.22;5033096;28;20029;-78
2022/08/19 02:50:53;;;;;;;30.90;22.92;;;;;;;15.06;100.00;101372.66;5033048;28;20025;-76
2022/08/19 02:53:18;;;;;;;33.40;23.13;;;;;;;15.00;100.00;101354.88;5033029;28;20025;-79
2022/08/19 02:55:46;;;;;;;29.95;21.98;;;;;;;15.01;100.00;101371.31;5032990;28;20039;-76
2022/08/19 02:58:11;;;;;;;32.15;23.95;;;;;;;14.96;100.00;101369.06;5032901;28;20385;-75
2022/08/19 03:00:43;;;;;;;33.30;23.48;;;;;;;14.86;100.00;101357.69;5032395;28;20034;-75
2022/08/19 03:03:08;;;;;;;31.40;23.27;;;;;;;14.90;100.00;101369.50;5032733;28;20021;-79
2022/08/19 03:05:34;;;;;;;32.67;23.70;;;;;;;14.95;100.00;101371.78;5032869;28;20041;-76
2022/08/19 03:07:59;;;;;;;33.28;24.15;;;;;;;14.84;100.00;101354.34;5032825;28;20565;-79
2022/08/19 03:10:24;;;;;;;31.25;22.35;;;;;;;14.90;100.00;101359.94;5032834;28;20057;-80
2022/08/19 03:12:50;;;;;;;31.27;22.85;;;;;;;14.90;100.00;101359.94;5032621;28;20048;-81
2022/08/19 03:15:15;;;;;;;34.22;24.95;;;;;;;14.77;100.00;101342.75;5032370;28;20030;-80
2022/08/19 03:17:41;;;;;;;32.95;24.10;;;;;;;14.81;100.00;101360.59;5032542;28;20120;-76
2022/08/19 03:20:06;;;;;;;34.65;24.45;;;;;;;14.82;100.00;101361.41;5032824;28;20024;-82
2022/08/19 03:22:32;;;;;;;32.08;24.45;;;;;;;14.79;100.00;101361.66;5032678;28;20026;-77
2022/08/19 03:24:58;;;;;;;30.40;23.50;;;;;;;14.63;100.00;101341.13;5014536;28;20064;-81
2022/08/19 03:27:24;;;;;;;35.05;24.73;;;;;;;14.76;100.00;101369.69;5032768;28;20022;-76
2022/08/19 03:29:50;;;;;;;33.70;25.15;;;;;;;14.70;100.00;101357.94;5032202;28;20041;-75
2022/08/19 03:32:15;;;;;;;31.95;24.38;;;;;;;14.75;100.00;101363.66;5032393;28;20009;-76
2022/08/19 03:34:40;;;;;;;34.38;24.25;;;;;;;14.74;100.00;101358.53;5014583;28;20045;-76
2022/08/19 03:37:11;;;;;;;31.42;23.33;;;;;;;14.63;100.00;101347.13;5032512;28;20095;-79
2022/08/19 03:39:38;;;;;;;33.35;23.70;;;;;;;14.69;100.00;101355.44;5032655;28;20236;-76
2022/08/19 03:42:05;;;;;;;32.70;25.50;;;;;;;14.65;100.00;101352.25;5032597;28;20028;-76
2022/08/19 03:44:32;;;;;;;36.40;26.08;;;;;;;14.64;100.00;101359.19;5032188;28;20033;-76
2022/08/19 03:46:59;;;;;;;34.17;24.65;;;;;;;14.66;100.00;101358.28;5031997;28;20021;-76
2022/08/19 03:49:27;;;;;;;32.53;23.08;;;;;;;14.47;100.00;101333.59;5032409;28;20051;-77
2022/08/19 03:51:54;;;;;;;36.92;27.23;;;;;;;14.63;100.00;101354.09;5032513;28;20029;-76
2022/08/19 03:54:22;;;;;;;30.52;24.45;;;;;;;14.59;100.00;101353.50;5034040;28;20381;-78
2022/08/19 03:56:50;;;;;;;30.80;23.73;;;;;;;14.50;100.00;101343.78;5036040;28;20466;-76
2022/08/19 03:59:19;;;;;;;32.22;23.67;;;;;;;14.56;100.00;101348.53;5036150;28;20030;-75
2022/08/19 04:01:45;;;;;;;32.05;22.73;;;;;;;14.54;100.00;101349.56;5036192;28;20511;-77
2022/08/19 04:04:10;;;;;;;25.33;20.38;;;;;;;14.50;100.00;101350.72;5036184;28;20105;-76
2022/08/19 04:06:38;;;;;;;25.23;20.08;;;;;;;14.48;100.00;101355.22;5036020;28;20381;-75
2022/08/19 04:09:10;;;;;;;28.20;19.27;;;;;;;14.40;100.00;101355.72;5035928;28;20422;-82
2022/08/19 04:11:41;;;;;;;26.90;19.98;;;;;;;14.39;100.00;101367.06;5035711;28;20041;-77
2022/08/19 04:14:08;;;;;;;25.40;18.30;;;;;;;14.31;100.00;101359.78;5035600;28;20091;-76
2022/08/19 04:16:34;;;;;;;25.83;19.42;;;;;;;14.26;100.00;101345.47;5035714;28;20029;-76
2022/08/19 04:19:02;;;;;;;24.58;18.83;;;;;;;14.17;100.00;101333.97;5035882;28;20412;-77
2022/08/19 04:21:28;;;;;;;27.83;21.60;;;;;;;14.28;100.00;101360.00;5035732;28;20049;-75
2022/08/19 04:23:55;;;;;;;29.05;21.88;;;;;;;14.20;100.00;101353.69;5035856;28;20028;-80
2022/08/19 04:26:25;;;;;;;30.35;22.48;;;;;;;14.24;100.00;101368.94;5035416;28;20481;-89
2022/08/19 04:28:52;;;;;;;26.65;19.60;;;;;;;14.45;100.00;101355.41;5035523;28;20033;-81
2022/08/19 04:31:25;;;;;;;25.25;19.30;;;;;;;14.62;100.00;101334.25;5035311;28;20029;-75
2022/08/19 04:33:52;;;;;;;26.95;21.00;;;;;;;14.84;100.00;101346.53;5017707;28;20529;-84
2022/08/19 04:36:21;;;;;;;30.52;20.95;;;;;;;14.95;100.00;101346.59;5035412;28;20030;-83
2022/08/19 04:38:48;;;;;;;26.40;20.77;;;;;;;15.07;100.00;101350.06;5035466;28;20033;-81
2022/08/19 04:43:57;;;;;;;28.10;21.02;;;;;;;15.14;100.00;101344.31;5034674;28;20072;-82
2022/08/19 04:46:23;;;;;;;28.95;22.17;;;;;;;15.04;100.00;101338.09;5035102;28;20068;-82
2022/08/19 04:48:48;;;;;;;29.13;21.48;;;;;;;14.45;100.00;101234.13;5035305;28;20028;-79
2022/08/19 04:51:15;;;;;;;27.38;19.02;;;;;;;15.37;100.00;101352.19;5017588;28;20469;-79
2022/08/19 04:53:41;;;;;;;26.77;21.20;;;;;;;15.33;100.00;101353.31;5017227;28;20049;-78
2022/08/19 04:56:12;;;;;;;28.35;21.05;;;;;;;15.39;100.00;101355.47;5035075;28;20148;-79
2022/08/19 04:58:41;;;;;;;32.70;23.48;;;;;;;15.31;100.00;101363.84;5035033;28;20025;-78
2022/08/19 05:01:06;;;;;;;26.75;20.23;;;;;;;15.15;100.00;101303.53;5034811;28;20018;-84
2022/08/19 05:03:33;;;;;;;30.20;22.50;;;;;;;15.03;100.00;101307.84;5034862;28;20026;-79
2022/08/19 05:06:05;;;;;;;30.17;22.45;;;;;;;15.44;100.00;101366.41;5034679;28;20106;-81
2022/08/19 05:08:30;;;;;;;29.85;21.98;;;;;;;15.52;100.00;101368.41;5034571;28;20039;-80
2022/08/19 05:10:57;;;;;;;33.05;25.40;;;;;;;15.37;100.00;101352.19;5035118;28;20097;-83
2022/08/19 05:13:23;;;;;;;38.10;26.90;;;;;;;15.38;100.00;101352.06;5034531;28;20124;-79
2022/08/19 05:15:58;;;;;;;35.45;25.00;;;;;;;15.69;100.00;101373.22;5034624;28;20456;-83
2022/08/19 05:23:57;;;;;;;35.63;27.45;;;;;;;15.96;100.00;101367.66;5034772;28;20033;-81
2022/08/19 05:26:22;;;;;;;37.78;29.15;;;;;;;16.25;100.00;101392.31;5034351;28;20461;-82
2022/08/19 05:28:48;;;;;;;42.35;30.92;;;;;;;16.41;100.00;101393.69;5034244;28;20040;-78
2022/08/19 05:31:13;;;;;;;44.63;32.38;;;;;;;16.44;99.85;101375.22;5034247;28;20025;-84
2022/08/19 05:33:39;;;;;;;54.08;39.05;;;;;;;16.64;99.42;101398.78;5033303;28;20024;-76
2022/08/19 05:36:05;;;;;;;47.00;32.78;;;;;;;16.87;98.24;101399.56;5016801;28;20457;-80
2022/08/19 05:38:31;;;;;;;49.92;35.22;;;;;;;16.95;98.00;101398.13;5033827;28;20531;-75
2022/08/19 05:40:57;;;;;;;56.30;40.70;;;;;;;17.09;97.08;101410.88;5034248;28;20026;-73
2022/08/19 05:43:22;;;;;;;43.78;31.83;;;;;;;17.38;95.43;101409.31;5033984;28;20029;-72
2022/08/19 05:45:48;;;;;;;50.13;35.38;;;;;;;17.44;94.96;101416.66;5033934;28;20120;-73
2022/08/19 05:48:14;;;;;;;45.90;33.28;;;;;;;17.54;94.03;101398.44;5033747;28;20143;-76
2022/08/19 05:50:40;;;;;;;48.78;34.80;;;;;;;17.69;93.48;101399.78;5033735;28;20033;-74
2022/08/19 05:53:08;;;;;;;51.60;34.85;;;;;;;17.80;92.52;101404.13;5033748;28;20037;-78
2022/08/19 05:55:36;;;;;;;47.80;34.47;;;;;;;18.28;90.89;101408.72;5033798;28;20030;-73
2022/08/19 05:58:02;;;;;;;48.50;35.15;;;;;;;18.78;88.50;101407.00;5033947;28;20029;-80
2022/08/19 06:00:28;;;;;;;55.53;38.05;;;;;;;19.18;86.82;101406.03;5034033;28;20366;-77
2022/08/19 06:02:56;;;;;;;43.58;31.10;;;;;;;19.58;83.81;101392.78;5032597;28;20033;-80
2022/08/19 06:05:21;;;;;;;46.63;33.58;;;;;;;19.96;81.86;101385.75;5033510;28;20037;-80
2022/08/19 06:07:46;;;;;;;54.05;37.05;;;;;;;20.27;80.19;101389.78;5033661;28;20026;-75
2022/08/19 06:10:12;;;;;;;55.78;37.20;;;;;;;20.58;78.07;101387.69;5033724;28;20100;-72
2022/08/19 06:12:38;;;;;;;48.75;34.65;;;;;;;20.98;76.13;101396.94;5015665;28;20041;-73
2022/08/19 06:15:13;;;;;;;45.33;32.10;;;;;;;21.42;75.40;101397.00;5033516;28;20492;-80
2022/08/19 06:17:38;;;;;;;50.10;34.78;;;;;;;21.65;73.16;101390.28;5032696;28;20035;-78
2022/08/19 06:20:06;;;;;;;50.75;37.38;;;;;;;21.82;72.45;101385.09;5033431;28;20021;-71
2022/08/19 06:22:40;;;;;;;46.40;33.90;;;;;;;22.09;70.60;101353.38;5033414;28;20040;-79
2022/08/19 06:25:06;;;;;;;44.92;32.60;;;;;;;22.65;68.93;101391.38;5033347;28;20555;-79
2022/08/19 06:27:32;;;;;;;37.17;27.35;;;;;;;23.17;66.15;101389.28;5033513;28;20053;-78
2022/08/19 06:29:58;;;;;;;41.08;31.13;;;;;;;23.51;65.19;101387.47;5033511;28;20389;-78
2022/08/19 06:32:23;;;;;;;40.40;31.13;;;;;;;23.71;64.26;101381.69;5032974;28;20024;-75
2022/08/19 06:34:48;;;;;;;43.30;31.40;;;;;;;23.99;63.60;101379.47;5033329;28;20358;-79
2022/08/19 06:37:14;;;;;;;39.78;26.98;;;;;;;24.15;62.63;101351.34;5033103;28;20017;-81
2022/08/19 06:39:41;;;;;;;35.80;26.33;;;;;;;24.62;61.04;101390.06;5033359;28;20121;-76
2022/08/19 06:42:09;;;;;;;36.30;27.17;;;;;;;24.73;59.99;101377.25;5033122;28;20025;-80
2022/08/19 06:44:36;;;;;;;35.22;28.42;;;;;;;24.74;60.48;101383.38;5032959;28;20052;-81
2022/08/19 06:47:04;;;;;;;36.75;27.05;;;;;;;24.87;59.38;101381.75;5032842;28;20044;-78
2022/08/19 06:49:30;;;;;;;37.50;28.23;;;;;;;25.06;58.47;101372.56;5032588;28;20026;-78
2022/08/19 06:51:57;;;;;;;48.42;32.45;;;;;;;24.70;58.74;101382.91;5032958;28;20060;-79
2022/08/19 06:54:23;;;;;;;40.50;29.83;;;;;;;24.43;60.08;101373.66;5032969;28;20025;-75
2022/08/19 06:56:48;;;;;;;45.25;32.42;;;;;;;24.48;60.29;101373.13;5032772;28;20501;-75
2022/08/19 06:59:17;;;;;;;34.72;26.08;;;;;;;24.83;59.53;101385.78;5032524;28;20046;-74
2022/08/19 07:01:46;;;;;;;42.42;31.80;;;;;;;24.61;60.61;101394.50;5032690;28;20029;-76
2022/08/19 07:04:15;;;;;;;35.75;26.42;;;;;;;24.52;59.84;101379.72;5014967;28;20504;-79
2022/08/19 07:06:41;;;;;;;32.60;24.48;;;;;;;24.53;60.07;101378.72;5032743;28;20401;-79
2022/08/19 07:09:11;;;;;;;40.97;29.48;;;;;;;24.52;60.39;101390.28;5031344;28;20091;-71
2022/08/19 07:11:36;;;;;;;42.33;31.42;;;;;;;24.20;61.32;101394.69;5033143;28;20022;-75
2022/08/19 07:14:02;;;;;;;44.92;34.17;;;;;;;23.62;62.53;101387.97;5032250;28;20056;-73
2022/08/19 07:16:28;;;;;;;38.53;29.80;;;;;;;23.23;64.37;101392.28;5032577;28;20088;-74
2022/08/19 07:18:54;;;;;;;44.65;34.50;;;;;;;22.73;65.58;101385.28;5032015;28;20018;-77
2022/08/19 07:21:23;;;;;;;51.42;35.67;;;;;;;22.49;67.58;101405.28;5032099;28;20021;-73
2022/08/19 07:23:50;;;;;;;54.45;38.55;;;;;;;22.30;68.22;101413.47;5032376;28;20108;-78
2022/08/19 07:26:21;;;;;;;54.63;39.10;;;;;;;21.89;69.74;101415.88;5032222;28;20037;-75
2022/08/19 07:28:47;;;;;;;56.90;39.08;;;;;;;21.49;71.46;101411.19;5033003;28;20021;-77
2022/08/19 07:31:17;;;;;;;55.80;40.60;;;;;;;21.34;72.96;101420.59;5018701;28;20022;-72
2022/08/19 07:33:44;;;;;;;49.80;35.53;;;;;;;21.39;73.33;101416.53;5036028;28;20163;-79
2022/08/19 07:36:12;;;;;;;41.67;30.58;;;;;;;21.39;72.49;101398.13;5036254;28;20021;-77
2022/08/19 07:38:40;;;;;;;44.47;31.55;;;;;;;21.56;72.33;101419.28;5036209;28;20033;-81
2022/08/19 07:41:06;;;;;;;43.33;30.55;;;;;;;21.56;72.64;101428.00;5036277;28;20354;-80
2022/08/19 07:43:32;;;;;;;47.50;33.08;;;;;;;21.43;72.65;101417.88;5036196;28;20025;-82
2022/08/19 07:45:58;;;;;;;52.03;34.58;;;;;;;21.36;73.28;101422.09;5036146;28;20087;-80
2022/08/19 07:48:25;;;;;;;47.90;34.42;;;;;;;21.19;74.17;101430.78;5018151;28;20048;-82
2022/08/19 07:51:01;;;;;;;61.78;38.47;;;;;;;21.01;75.00;101427.31;5036296;28;20033;-75
2022/08/19 07:53:27;;;;;;;47.75;34.35;;;;;;;20.85;75.87;101423.59;5036031;28;20413;-83
2022/08/19 07:55:53;;;;;;;59.00;38.10;;;;;;;20.86;76.77;101442.78;5036084;28;20117;-79
2022/08/19 07:58:20;;;;;;;51.50;36.42;;;;;;;20.88;76.94;101439.03;5036240;28;20053;-78
2022/08/19 08:00:48;;;;;;;48.88;35.47;;;;;;;20.99;76.67;101445.03;5035776;28;20033;-76
2022/08/19 08:03:16;;;;;;;48.30;33.65;;;;;;;21.13;76.09;101447.94;5035694;28;20033;-74
2022/08/19 08:11:10;;;;;;;52.47;35.45;;;;;;;21.04;76.96;101443.63;5035993;28;20060;-80
2022/08/19 08:13:36;;;;;;;53.40;36.75;;;;;;;21.01;77.06;101437.81;5035423;28;20047;-79
2022/08/19 08:16:02;;;;;;;45.58;32.33;;;;;;;21.19;76.55;101446.53;5035751;28;20025;-79
2022/08/19 08:18:27;;;;;;;48.10;33.28;;;;;;;21.36;75.76;101453.63;5035640;28;20029;-77
2022/08/19 08:20:53;;;;;;;54.25;37.05;;;;;;;21.28;76.50;101440.41;5035201;28;20021;-80
2022/08/19 08:23:22;;;;;;;58.88;38.67;;;;;;;21.23;76.82;101455.75;5035274;28;20472;-77
2022/08/19 08:25:48;;;;;;;48.90;34.20;;;;;;;21.17;76.18;101438.00;5034076;28;20477;-83
2022/08/19 08:28:14;;;;;;;49.95;36.88;;;;;;;21.17;76.93;101451.94;5035275;28;20412;-77
2022/08/19 08:30:41;;;;;;;41.40;32.83;;;;;;;21.24;77.15;101460.06;5035211;28;20041;-75
2022/08/19 08:33:08;;;;;;;55.15;39.17;;;;;;;21.13;77.32;101468.13;5035619;28;20033;-77
2022/08/19 08:35:33;;;;;;;44.55;32.70;;;;;;;21.24;76.94;101470.56;5035189;28;20025;-79
2022/08/19 08:37:59;;;;;;;50.10;35.78;;;;;;;21.01;77.45;101456.22;5035370;28;20428;-79
2022/08/19 08:40:51;;;;;;;51.38;37.13;;;;;;;21.09;77.40;101478.13;5034591;28;20025;-78
2022/08/19 08:43:36;;;;;;;47.25;34.92;;;;;;;21.01;77.81;101470.16;5035116;28;20030;-84
2022/08/19 08:46:09;;;;;;;42.92;29.95;;;;;;;21.09;77.64;101478.13;5035096;28;20026;-76
2022/08/19 08:48:53;;;;;;;45.97;33.58;;;;;;;21.10;77.40;101484.22;5034888;28;20032;-80
2022/08/19 08:51:36;;;;;;;46.72;34.33;;;;;;;21.06;77.79;101490.75;5034722;28;20388;-78
2022/08/19 08:54:06;;;;;;;42.95;30.13;;;;;;;21.00;77.64;101476.41;5034967;28;20030;-80
2022/08/19 08:56:32;;;;;;;43.33;33.55;;;;;;;21.12;77.75;101477.00;5035149;28;20031;-78
2022/08/19 08:59:01;;;;;;;43.40;33.22;;;;;;;21.32;76.66;101462.75;5034793;28;20029;-79
2022/08/19 09:01:27;;;;;;;42.88;32.85;;;;;;;21.54;75.10;101464.13;5034988;28;20049;-80
2022/08/19 09:03:53;;;;;;;47.75;34.80;;;;;;;21.67;75.07;101464.53;5034840;28;20029;-78
2022/08/19 09:06:28;;;;;;;38.22;29.35;;;;;;;21.98;74.14;101480.69;5034534;28;20034;-82
2022/08/19 09:09:14;;;;;;;39.28;29.20;;;;;;;22.15;74.13;101476.38;5034899;28;20029;-82
2022/08/19 09:12:04;;;;;;;37.38;30.95;;;;;;;22.31;73.24;101478.25;5034648;28;20481;-82
2022/08/19 09:14:41;;;;;;;43.80;32.30;;;;;;;22.48;73.05;101474.72;5034593;28;20405;-81
2022/08/19 09:17:08;;;;;;;45.97;32.95;;;;;;;22.61;72.25;101469.00;5034636;28;20030;-84
2022/08/19 09:19:36;;;;;;;46.47;33.85;;;;;;;22.51;71.25;101452.50;5034949;28;20025;-78
2022/08/19 09:22:01;;;;;;;41.17;31.13;;;;;;;22.53;71.72;101469.00;5034946;28;20026;-79
2022/08/19 09:24:26;;;;;;;47.95;36.90;;;;;;;22.37;72.28;101477.63;5016754;28;20030;-77
2022/08/19 09:26:52;;;;;;;50.55;37.47;;;;;;;21.92;73.58;101467.31;5034340;28;20072;-78
2022/08/19 09:29:17;;;;;;;49.13;35.83;;;;;;;21.96;74.59;101490.53;5034393;28;20029;-78
2022/08/19 09:31:42;;;;;;;47.47;34.42;;;;;;;21.84;75.46;101491.78;5034286;28;20025;-77
2022/08/19 09:34:08;;;;;;;49.10;38.30;;;;;;;21.65;76.92;101491.97;5034040;28;20030;-85
2022/08/19 09:36:35;;;;;;;43.63;33.45;;;;;;;21.77;76.40;101493.38;5016208;28;20033;-82
2022/08/19 09:39:03;;;;;;;52.90;38.40;;;;;;;21.68;74.92;101483.75;5034356;28;20105;-83
2022/08/19 09:41:28;;;;;;;50.47;37.42;;;;;;;21.85;74.83;101482.91;5034298;28;20056;-80
2022/08/19 09:43:56;;;;;;;43.47;33.25;;;;;;;22.13;73.35;101495.94;5034154;28;20044;-85
2022/08/19 09:46:24;;;;;;;47.40;35.33;;;;;;;22.20;73.20;101495.13;5015733;28;20041;-87
2022/08/19 09:48:51;;;;;;;47.50;36.40;;;;;;;22.31;73.64;101497.50;5016253;28;20033;-79
2022/08/19 09:51:20;;;;;;;56.00;38.45;;;;;;;22.35;72.10;101466.44;5033079;28;20075;-81
2022/08/19 09:53:49;;;;;;;47.03;35.70;;;;;;;22.75;71.24;101483.38;5033969;28;20049;-83
2022/08/19 09:56:16;;;;;;;45.47;36.03;;;;;;;22.88;70.80;101497.75;5033927;28;20022;-84
2022/08/19 09:58:41;;;;;;;51.40;38.05;;;;;;;22.93;70.28;101486.75;5033693;28;20431;-78
2022/08/19 10:01:07;;;;;;;44.30;35.88;;;;;;;23.10;69.55;101479.69;5032397;28;20112;-76
2022/08/19 10:03:35;;;;;;;45.33;35.13;;;;;;;23.41;69.46;101493.91;5033293;28;20139;-75
2022/08/19 10:06:03;;;;;;;39.10;31.98;;;;;;;23.55;68.24;101502.97;5033399;28;20030;-83
2022/08/19 10:08:35;;;;;;;49.50;37.90;;;;;;;23.46;67.25;101501.31;5034033;28;20385;-85
2022/08/19 10:11:01;;;;;;;41.65;32.80;;;;;;;23.60;67.75;101492.78;5033608;28;20147;-78
2022/08/19 10:13:29;;;;;;;51.88;37.20;;;;;;;23.64;67.01;101499.38;5033025;28;20049;-80
2022/08/19 10:16:01;;;;;;;40.85;33.47;;;;;;;23.79;66.88;101493.41;5033491;28;20045;-81
2022/08/19 10:18:27;;;;;;;54.03;39.50;;;;;;;23.72;67.29;101475.63;5033488;28;20079;-83
2022/08/19 10:21:09;;;;;;;49.95;37.17;;;;;;;23.84;67.08;101491.94;5033261;28;20025;-81
2022/08/19 10:23:39;;;;;;;44.10;34.25;;;;;;;23.71;67.10;101491.63;5033314;28;20359;-80
2022/08/19 10:26:06;;;;;;;48.55;34.58;;;;;;;23.44;67.37;101483.03;5033081;28;20033;-74
2022/08/19 10:28:36;;;;;;;45.65;34.15;;;;;;;23.31;68.11;101487.16;5033237;28;20024;-76
2022/08/19 10:31:11;;;;;;;42.20;33.55;;;;;;;23.22;68.13;101490.75;5033174;28;20027;-80
2022/08/19 10:33:37;;;;;;;39.00;30.90;;;;;;;23.27;67.51;101486.63;5033191;28;20029;-77
2022/08/19 10:36:09;;;;;;;45.42;30.52;;;;;;;23.34;67.94;101490.25;5032941;28;20028;-78
2022/08/19 10:38:35;;;;;;;41.55;30.35;;;;;;;23.21;67.76;101470.66;5015167;28;20385;-79
2022/08/19 10:41:16;;;;;;;42.80;32.17;;;;;;;23.29;68.13;101497.81;5015416;28;20021;-73
2022/08/19 10:43:41;;;;;;;;;;;;;;;23.38;68.22;101490.75;5033310;28;20025;-79
2022/08/19 10:46:09;;;;;;;44.55;33.80;;;;;;;23.13;67.57;101492.56;5032590;28;20410;-75
2022/08/19 10:48:35;;;;;;;41.13;31.95;;;;;;;23.16;67.88;101493.03;5032786;28;20389;-83
2022/08/19 10:53:46;;;;;;;42.00;33.78;;;;;;;23.07;67.96;101480.84;5033060;28;20120;-77
2022/08/19 10:58:57;;;;;;;46.92;32.60;;;;;;;23.74;66.89;101481.56;5032782;28;20573;-75
2022/08/19 11:01:23;;;;;;;43.30;32.50;;;;;;;23.91;65.08;101466.53;5032803;28;20053;-77
2022/08/19 11:03:49;;;;;;;45.63;34.03;;;;;;;24.10;63.99;101478.53;5032138;28;20030;-83
2022/08/19 11:06:15;;;;;;;40.13;31.38;;;;;;;24.19;64.06;101474.88;5014497;28;20044;-76
2022/08/19 11:08:41;;;;;;;44.45;33.83;;;;;;;24.21;63.97;101457.03;5032439;28;20082;-79
2022/08/19 11:11:08;;;;;;;50.40;35.63;;;;;;;24.29;62.54;101457.03;5032613;28;20017;-82
2022/08/19 11:13:37;;;;;;;44.95;33.53;;;;;;;24.47;62.64;101450.69;5032347;28;20525;-78
2022/08/19 11:16:07;;;;;;;43.45;33.08;;;;;;;24.62;62.01;101475.38;5032633;28;20032;-85
2022/08/19 11:18:35;;;;;;;44.15;34.55;;;;;;;24.69;62.47;101464.97;5032473;28;20036;-78
2022/08/19 11:21:14;;;;;;;40.10;31.05;;;;;;;24.78;61.83;101432.22;5014754;28;20030;-77
2022/08/19 11:23:40;;;;;;;36.83;29.25;;;;;;;25.21;60.30;101475.72;5032552;28;20033;-77
2022/08/19 11:26:06;;;;;;;39.25;30.30;;;;;;;25.21;60.08;101459.84;5030393;28;20049;-73
2022/08/19 11:28:31;;;;;;;39.28;31.15;;;;;;;25.15;59.77;101442.03;5032185;28;20033;-77